createdAt,value
2019-01-31T00:01:15.631Z,10.90
2019-01-31T00:04:19.390Z,9.60
2019-01-31T00:07:20.362Z,9.13
2019-01-31T00:10:07.531Z,9.47
2019-01-31T00:12:55.135Z,8.53
2019-01-31T00:15:46.634Z,9.87
2019-01-31T00:18:56.125Z,13.40
2019-01-31T00:21:35.068Z,9.17
2019-01-31T00:24:25.613Z,9.83
2019-01-31T00:27:40.880Z,10.30
2019-01-31T00:30:55.994Z,10.17
2019-01-31T00:33:34.963Z,11.13
2019-01-31T00:36:50.100Z,9.67
2019-01-31T00:39:45.713Z,7.77
2019-01-31T00:43:00.904Z,9.07
2019-01-31T00:45:54.646Z,9.13
2019-01-31T00:48:43.198Z,8.10
2019-01-31T00:51:24.316Z,9.37
2019-01-31T00:53:59.498Z,9.27
2019-01-31T00:57:00.484Z,8.70
2019-01-31T00:59:50.795Z,9.43
2019-01-31T01:02:50.816Z,10.40
2019-01-31T01:05:51.122Z,11.00
2019-01-31T01:08:51.163Z,7.90
2019-01-31T01:11:32.341Z,7.70
2019-01-31T01:14:48.409Z,8.17
2019-01-31T01:17:37.468Z,8.63
2019-01-31T01:20:16.123Z,9.63
2019-01-31T01:22:48.113Z,9.67
2019-01-31T01:26:09.728Z,9.30
2019-01-31T01:29:05.336Z,7.83
2019-01-31T01:32:07.560Z,8.60
2019-01-31T01:35:06.628Z,7.47
2019-01-31T01:37:55.639Z,6.37
2019-01-31T01:40:58.891Z,5.93
2019-01-31T01:43:48.021Z,7.13
2019-01-31T01:46:35.567Z,6.93
2019-01-31T01:49:30.024Z,6.37
2019-01-31T01:52:24.522Z,11.10
2019-01-31T01:55:02.393Z,8.53
2019-01-31T01:57:54.079Z,9.53
2019-01-31T02:00:47.408Z,9.03
2019-01-31T02:03:52.511Z,8.43
2019-01-31T02:07:04.860Z,9.60
2019-01-31T02:10:06.629Z,7.87
2019-01-31T02:13:00.401Z,14.73
2019-01-31T02:15:50.471Z,9.73
2019-01-31T02:18:38.780Z,9.60
2019-01-31T02:21:29.099Z,11.00
2019-01-31T02:24:22.858Z,8.43
2019-01-31T02:27:30.046Z,9.47
2019-01-31T02:30:21.338Z,8.40
2019-01-31T02:33:03.281Z,11.80
2019-01-31T02:36:05.038Z,10.57
2019-01-31T02:39:13.423Z,12.03
2019-01-31T02:42:25.554Z,10.53
2019-01-31T02:45:21.338Z,10.57
2019-01-31T02:48:11.619Z,9.60
2019-01-31T02:51:15.579Z,11.57
2019-01-31T02:54:11.320Z,10.90
2019-01-31T02:57:02.545Z,13.40
2019-01-31T03:00:14.064Z,13.37
2019-01-31T03:03:03.915Z,13.47
2019-01-31T03:05:50.547Z,10.37
2019-01-31T03:08:57.123Z,12.47
2019-01-31T03:11:44.765Z,12.00
2019-01-31T03:14:53.427Z,10.97
2019-01-31T03:17:59.625Z,10.87
2019-01-31T03:20:54.973Z,12.67
2019-01-31T03:24:06.375Z,13.33
2019-01-31T03:27:01.311Z,10.93
2019-01-31T03:30:26.335Z,9.40
2019-01-31T03:33:32.778Z,10.10
2019-01-31T03:36:26.940Z,9.23
2019-01-31T03:39:31.995Z,11.90
2019-01-31T03:42:56.791Z,14.47
2019-01-31T03:45:56.404Z,11.57
2019-01-31T03:48:30.274Z,10.13
2019-01-31T03:51:25.588Z,16.00
2019-01-31T03:54:29.252Z,9.50
2019-01-31T03:57:35.532Z,10.97
2019-01-31T04:00:50.791Z,13.17
2019-01-31T04:03:32.647Z,11.70
2019-01-31T04:06:11.017Z,11.47
2019-01-31T04:08:38.364Z,12.17
2019-01-31T04:11:05.807Z,11.47
2019-01-31T04:13:33.135Z,13.47
2019-01-31T04:16:00.365Z,11.77
2019-01-31T04:18:27.660Z,12.93
2019-01-31T04:20:55.327Z,12.70
2019-01-31T04:23:22.453Z,13.13
2019-01-31T04:25:49.787Z,12.40
2019-01-31T04:28:17.093Z,10.93
2019-01-31T04:30:44.436Z,11.07
2019-01-31T04:33:11.750Z,11.63
2019-01-31T04:35:39.087Z,12.20
2019-01-31T04:38:06.357Z,12.47
2019-01-31T04:40:33.750Z,10.23
2019-01-31T04:43:01.192Z,10.60
2019-01-31T04:45:28.534Z,13.27
2019-01-31T04:47:56.491Z,8.27
2019-01-31T04:50:23.920Z,9.03
2019-01-31T04:52:51.232Z,12.90
2019-01-31T04:55:18.524Z,10.03
2019-01-31T04:57:45.807Z,8.07
2019-01-31T05:00:15.054Z,9.30
2019-01-31T05:02:42.405Z,9.23
2019-01-31T05:05:10.010Z,9.83
2019-01-31T05:07:37.371Z,11.90
2019-01-31T05:10:06.019Z,11.77
2019-01-31T05:12:33.353Z,11.47
2019-01-31T05:15:00.699Z,10.33
2019-01-31T05:17:27.937Z,9.27
2019-01-31T05:19:55.153Z,10.43
2019-01-31T05:22:22.500Z,9.53
2019-01-31T05:24:49.804Z,11.67
2019-01-31T05:27:17.033Z,11.60
2019-01-31T05:29:44.340Z,10.43
2019-01-31T05:32:11.721Z,11.20
2019-01-31T05:34:39.033Z,10.03
2019-01-31T05:37:06.398Z,7.73
2019-01-31T05:39:33.733Z,12.90
2019-01-31T05:42:01.081Z,9.00
2019-01-31T05:44:28.430Z,10.37
2019-01-31T05:46:55.650Z,10.40
2019-01-31T05:49:23.071Z,9.47
2019-01-31T05:51:50.429Z,9.80
2019-01-31T05:54:17.796Z,10.20
2019-01-31T05:56:45.321Z,9.60
2019-01-31T05:59:12.639Z,11.43
2019-01-31T06:01:40.069Z,11.03
2019-01-31T06:04:07.429Z,13.80
2019-01-31T06:06:34.707Z,9.30
2019-01-31T06:09:02.769Z,12.63
2019-01-31T06:11:30.292Z,9.73
2019-01-31T06:13:57.533Z,11.03
2019-01-31T06:16:24.762Z,9.17
2019-01-31T06:18:51.994Z,12.57
2019-01-31T06:21:19.360Z,10.80
2019-01-31T06:23:46.741Z,10.57
2019-01-31T06:26:14.419Z,11.33
2019-01-31T06:28:41.797Z,13.87
2019-01-31T06:31:09.188Z,10.37
2019-01-31T06:33:36.562Z,11.07
2019-01-31T06:36:03.894Z,10.07
2019-01-31T06:38:31.234Z,12.07
2019-01-31T06:40:58.439Z,13.83
2019-01-31T06:43:25.665Z,11.70
2019-01-31T06:45:56.092Z,13.93
2019-01-31T06:48:22.357Z,11.47
2019-01-31T06:50:49.874Z,13.10
2019-01-31T06:53:17.108Z,14.40
2019-01-31T06:55:44.448Z,12.63
2019-01-31T06:58:11.796Z,13.77
2019-01-31T07:00:39.320Z,13.53
2019-01-31T07:03:06.692Z,12.33
2019-01-31T07:05:34.131Z,6.03
2019-01-31T07:08:01.418Z,9.93
2019-01-31T07:10:28.774Z,12.37
2019-01-31T07:12:56.159Z,11.20
2019-01-31T07:15:23.455Z,8.30
2019-01-31T07:17:50.771Z,11.53
2019-01-31T07:20:18.111Z,11.37
2019-01-31T07:22:45.647Z,12.73
2019-01-31T07:25:16.003Z,11.17
2019-01-31T07:27:43.277Z,9.50
2019-01-31T07:30:11.680Z,11.20
2019-01-31T07:32:38.988Z,13.07
2019-01-31T07:35:08.352Z,11.27
2019-01-31T07:37:35.591Z,11.93
2019-01-31T07:40:03.872Z,13.83
2019-01-31T07:42:31.290Z,14.03
2019-01-31T07:44:58.738Z,11.87
2019-01-31T07:47:26.204Z,11.73
2019-01-31T07:49:53.410Z,11.47
2019-01-31T07:52:20.661Z,14.20
2019-01-31T07:54:47.900Z,14.37
2019-01-31T07:57:16.096Z,11.23
2019-01-31T07:59:43.485Z,13.00
2019-01-31T08:02:10.801Z,11.87
2019-01-31T08:04:38.316Z,13.47
2019-01-31T08:07:05.664Z,10.43
2019-01-31T08:09:33.024Z,10.97
2019-01-31T08:12:00.331Z,12.43
2019-01-31T08:14:27.643Z,13.53
2019-01-31T08:16:55.207Z,13.00
2019-01-31T08:19:22.460Z,13.23
2019-01-31T08:21:49.768Z,11.43
2019-01-31T08:24:17.004Z,10.40
2019-01-31T08:26:44.309Z,12.60
2019-01-31T08:29:11.762Z,13.00
2019-01-31T08:31:39.080Z,11.87
2019-01-31T08:34:06.417Z,13.80
2019-01-31T08:36:33.773Z,13.23
2019-01-31T08:39:01.090Z,13.70
2019-01-31T08:41:28.420Z,13.63
2019-01-31T08:43:55.776Z,13.43
2019-01-31T08:46:23.049Z,15.67
2019-01-31T08:48:50.383Z,17.83
2019-01-31T08:51:17.715Z,16.03
2019-01-31T08:53:45.064Z,14.93
2019-01-31T08:56:12.336Z,16.23
2019-01-31T08:58:39.684Z,17.67
2019-01-31T09:01:07.119Z,17.60
2019-01-31T09:03:34.344Z,15.27
2019-01-31T09:06:02.219Z,13.07
2019-01-31T09:08:29.564Z,13.53
2019-01-31T09:10:56.960Z,14.23
2019-01-31T09:13:26.684Z,19.47
2019-01-31T09:15:54.039Z,13.83
2019-01-31T09:18:21.372Z,15.20
2019-01-31T09:21:28.835Z,13.60
2019-01-31T09:24:31.637Z,13.73
2019-01-31T09:27:39.651Z,17.07
2019-01-31T09:30:58.096Z,12.07
2019-01-31T09:34:12.136Z,14.93
2019-01-31T09:37:01.068Z,15.93
2019-01-31T09:39:56.555Z,16.67
2019-01-31T09:43:02.580Z,16.03
2019-01-31T09:46:16.842Z,18.40
2019-01-31T09:48:54.085Z,13.07
2019-01-31T09:51:55.759Z,16.73
2019-01-31T09:54:30.382Z,16.63
2019-01-31T09:57:14.537Z,17.23
2019-01-31T10:00:41.584Z,16.43
2019-01-31T10:03:46.273Z,18.27
2019-01-31T10:07:08.097Z,14.80
2019-01-31T10:09:58.589Z,19.83
2019-01-31T10:13:01.453Z,21.40
2019-01-31T10:16:28.692Z,21.20
2019-01-31T10:19:40.828Z,21.63
2019-01-31T10:22:45.404Z,20.67
2019-01-31T10:25:56.630Z,21.43
2019-01-31T10:28:56.059Z,19.70
2019-01-31T10:32:01.412Z,22.60
2019-01-31T10:34:54.824Z,24.40
2019-01-31T10:38:12.976Z,21.23
2019-01-31T10:41:31.136Z,20.63
2019-01-31T10:44:40.827Z,22.13
2019-01-31T10:47:39.051Z,20.37
2019-01-31T10:50:58.617Z,17.87
2019-01-31T10:54:06.649Z,24.37
2019-01-31T10:57:28.359Z,22.53
2019-01-31T11:00:31.461Z,18.10
2019-01-31T11:03:40.228Z,22.00
2019-01-31T11:06:36.940Z,24.87
2019-01-31T11:09:34.162Z,25.30
2019-01-31T11:12:42.590Z,20.00
2019-01-31T11:15:33.887Z,23.73
2019-01-31T11:18:49.071Z,18.87
2019-01-31T11:21:31.965Z,20.40
2019-01-31T11:24:34.047Z,20.60
2019-01-31T11:27:58.752Z,21.43
2019-01-31T11:30:59.019Z,14.70
2019-01-31T11:33:59.468Z,22.27
2019-01-31T11:36:40.009Z,22.83
2019-01-31T11:39:30.487Z,22.40
2019-01-31T11:42:32.920Z,21.63
2019-01-31T11:45:44.103Z,20.83
2019-01-31T11:48:33.348Z,20.27
2019-01-31T11:52:01.228Z,21.67
2019-01-31T11:55:11.227Z,19.33
2019-01-31T11:58:35.660Z,22.40
2019-01-31T12:01:05.567Z,21.30
2019-01-31T12:03:35.196Z,20.37
2019-01-31T12:06:02.954Z,19.73
2019-01-31T12:08:30.219Z,18.03
2019-01-31T12:10:57.472Z,20.30
2019-01-31T12:13:25.088Z,18.50
2019-01-31T12:15:52.448Z,19.40
2019-01-31T12:18:19.774Z,20.33
2019-01-31T12:20:47.005Z,18.33
2019-01-31T12:23:14.519Z,20.40
2019-01-31T12:25:41.774Z,21.27
2019-01-31T12:28:09.088Z,19.30
2019-01-31T12:30:36.431Z,22.23
2019-01-31T12:33:03.756Z,20.83
2019-01-31T12:35:31.076Z,19.97
2019-01-31T12:37:58.324Z,22.50
2019-01-31T12:40:25.628Z,20.80
2019-01-31T12:42:52.871Z,21.43
2019-01-31T12:45:20.776Z,22.07
2019-01-31T12:47:48.092Z,21.90
2019-01-31T12:50:18.243Z,22.50
2019-01-31T12:52:45.447Z,20.40
2019-01-31T12:55:12.882Z,14.97
2019-01-31T12:57:40.224Z,21.23
2019-01-31T13:00:16.885Z,20.90
2019-01-31T13:02:44.244Z,22.73
2019-01-31T13:05:12.551Z,21.50
2019-01-31T13:07:39.770Z,22.87
2019-01-31T13:10:07.155Z,20.27
2019-01-31T13:12:34.475Z,23.80
2019-01-31T13:15:01.808Z,22.47
2019-01-31T13:17:31.237Z,25.53
2019-01-31T13:19:58.889Z,25.53
2019-01-31T13:22:26.265Z,24.20
2019-01-31T13:24:53.611Z,26.93
2019-01-31T13:27:20.834Z,21.63
2019-01-31T13:29:48.443Z,23.90
2019-01-31T13:32:15.843Z,24.13
2019-01-31T13:34:43.401Z,24.90
2019-01-31T13:37:10.739Z,23.33
2019-01-31T13:39:38.300Z,22.93
2019-01-31T13:42:05.662Z,20.33
2019-01-31T13:44:33.008Z,19.00
2019-01-31T13:47:00.377Z,25.57
2019-01-31T13:49:27.676Z,24.07
2019-01-31T13:51:55.085Z,21.80
2019-01-31T13:54:22.559Z,22.33
2019-01-31T13:56:50.015Z,21.80
2019-01-31T13:59:17.233Z,22.00
2019-01-31T14:01:44.835Z,21.23
2019-01-31T14:04:12.228Z,23.83
2019-01-31T14:06:39.444Z,20.73
2019-01-31T14:09:08.363Z,22.60
2019-01-31T14:11:35.810Z,20.33
2019-01-31T14:14:09.139Z,19.70
2019-01-31T14:16:32.749Z,20.73
2019-01-31T14:19:00.232Z,22.93
2019-01-31T14:21:27.552Z,20.57
2019-01-31T14:23:54.865Z,21.47
2019-01-31T14:26:22.300Z,21.00
2019-01-31T14:28:49.560Z,20.93
2019-01-31T14:31:16.895Z,20.53
2019-01-31T14:33:44.250Z,20.27
2019-01-31T14:36:11.584Z,20.57
2019-01-31T14:38:39.007Z,21.70
2019-01-31T14:41:06.479Z,19.47
2019-01-31T14:43:33.719Z,19.67
2019-01-31T14:46:01.031Z,20.27
2019-01-31T14:48:28.378Z,20.80
2019-01-31T14:50:55.698Z,19.93
2019-01-31T14:53:23.037Z,19.73
2019-01-31T14:55:50.272Z,18.83
2019-01-31T14:58:19.917Z,20.50
2019-01-31T15:00:46.733Z,20.87
2019-01-31T15:03:14.032Z,19.17
2019-01-31T15:05:41.377Z,20.93
2019-01-31T15:08:08.705Z,18.60
2019-01-31T15:10:36.083Z,17.90
2019-01-31T15:13:03.814Z,18.03
2019-01-31T15:15:31.025Z,20.73
2019-01-31T15:17:58.368Z,19.10
2019-01-31T15:20:37.532Z,18.43
2019-01-31T15:22:57.401Z,18.03
2019-01-31T15:25:24.615Z,17.63
2019-01-31T15:27:51.971Z,18.60
2019-01-31T15:30:22.269Z,18.00
2019-01-31T15:32:49.625Z,17.10
2019-01-31T15:35:17.034Z,16.37
2019-01-31T15:37:44.271Z,17.20
2019-01-31T15:40:14.883Z,15.07
2019-01-31T15:42:42.132Z,14.67
2019-01-31T15:45:09.683Z,16.37
2019-01-31T15:47:37.008Z,17.07
2019-01-31T15:50:05.733Z,13.80
2019-01-31T15:52:33.188Z,16.43
2019-01-31T15:55:00.510Z,16.53
2019-01-31T15:57:27.861Z,16.33
2019-01-31T15:59:55.095Z,16.63
2019-01-31T16:02:22.316Z,16.43
2019-01-31T16:04:49.853Z,15.07
2019-01-31T16:07:17.249Z,15.70
2019-01-31T16:09:44.576Z,14.20
2019-01-31T16:12:11.958Z,14.83
2019-01-31T16:14:39.288Z,15.63
2019-01-31T16:17:06.587Z,15.97
2019-01-31T16:19:33.804Z,15.20
2019-01-31T16:22:01.187Z,17.37
2019-01-31T16:24:28.376Z,17.17
2019-01-31T16:26:55.730Z,16.40
2019-01-31T16:29:23.048Z,19.97
2019-01-31T16:31:50.477Z,17.47
2019-01-31T16:34:17.821Z,20.27
2019-01-31T16:36:45.116Z,17.67
2019-01-31T16:39:12.363Z,17.47
2019-01-31T16:41:39.713Z,17.73
2019-01-31T16:44:07.435Z,15.27
2019-01-31T16:46:36.507Z,16.80
2019-01-31T16:49:04.079Z,16.73
2019-01-31T16:51:31.428Z,16.60
2019-01-31T16:53:58.644Z,16.57
2019-01-31T16:56:25.983Z,17.03
2019-01-31T16:58:53.218Z,15.90
2019-01-31T17:01:20.605Z,15.43
2019-01-31T17:03:47.969Z,16.73
2019-01-31T17:06:15.190Z,18.80
2019-01-31T17:08:42.612Z,16.63
2019-01-31T17:11:10.010Z,21.33
2019-01-31T17:13:37.446Z,19.40
2019-01-31T17:16:04.857Z,18.17
2019-01-31T17:18:32.234Z,20.43
2019-01-31T17:20:59.531Z,20.53
2019-01-31T17:23:26.757Z,18.47
2019-01-31T17:25:54.112Z,20.63
2019-01-31T17:28:21.432Z,22.17
2019-01-31T17:30:48.692Z,21.67
2019-01-31T17:33:15.998Z,24.30
2019-01-31T17:35:43.444Z,22.60
2019-01-31T17:38:10.832Z,24.40
2019-01-31T17:40:40.337Z,23.80
2019-01-31T17:43:08.735Z,22.57
2019-01-31T17:45:36.027Z,22.20
2019-01-31T17:48:04.351Z,20.57
2019-01-31T17:50:31.733Z,23.90
2019-01-31T17:52:59.347Z,23.90
2019-01-31T17:55:26.952Z,23.23
2019-01-31T17:57:54.312Z,22.60
2019-01-31T18:00:31.942Z,25.37
2019-01-31T18:05:41.731Z,28.23
2019-01-31T18:08:09.547Z,25.10
2019-01-31T18:10:37.275Z,24.37
2019-01-31T18:13:05.663Z,23.27
2019-01-31T18:15:41.545Z,24.83
2019-01-31T18:18:02.501Z,28.57
2019-01-31T18:20:29.880Z,26.23
2019-01-31T18:22:57.223Z,24.97
2019-01-31T18:25:24.949Z,30.77
2019-01-31T18:27:53.278Z,27.27
2019-01-31T18:30:22.870Z,23.97
2019-01-31T18:32:50.311Z,24.47
2019-01-31T18:35:17.619Z,24.30
2019-01-31T18:37:45.061Z,24.37
2019-01-31T18:40:15.424Z,23.33
2019-01-31T18:42:42.815Z,28.60
2019-01-31T18:45:12.980Z,27.93
2019-01-31T18:47:40.336Z,25.43
2019-01-31T18:50:10.915Z,29.57
2019-01-31T18:52:38.519Z,24.03
2019-01-31T18:55:06.478Z,29.20
2019-01-31T18:57:33.809Z,29.10
2019-01-31T19:00:01.154Z,26.13
2019-01-31T19:02:28.505Z,28.87
2019-01-31T19:04:55.871Z,33.50
2019-01-31T19:07:23.554Z,33.33
2019-01-31T19:09:51.003Z,37.33
2019-01-31T19:12:18.340Z,37.57
2019-01-31T19:14:45.704Z,39.33
2019-01-31T19:17:13.352Z,40.40
2019-01-31T19:19:40.667Z,39.77
2019-01-31T19:22:08.009Z,39.67
2019-01-31T19:24:35.420Z,38.13
2019-01-31T19:27:02.656Z,37.70
2019-01-31T19:29:30.171Z,37.20
2019-01-31T19:31:57.421Z,37.37
2019-01-31T19:34:24.937Z,39.23
2019-01-31T19:36:52.379Z,37.87
2019-01-31T19:39:19.914Z,36.13
2019-01-31T19:41:47.177Z,40.27
2019-01-31T19:44:14.619Z,33.10
2019-01-31T19:46:41.968Z,37.83
2019-01-31T19:49:09.185Z,37.60
2019-01-31T19:51:36.475Z,39.50
2019-01-31T19:54:04.071Z,42.10
2019-01-31T19:56:31.428Z,38.93
2019-01-31T19:58:59.138Z,40.97
2019-01-31T20:01:26.498Z,43.33
2019-01-31T20:03:53.876Z,40.33
2019-01-31T20:06:21.337Z,40.30
2019-01-31T20:08:48.731Z,41.00
2019-01-31T20:11:16.044Z,48.03
2019-01-31T20:13:43.934Z,39.37
2019-01-31T20:16:11.542Z,43.40
2019-01-31T20:18:38.854Z,40.20
2019-01-31T20:21:06.262Z,36.57
2019-01-31T20:23:33.616Z,40.60
2019-01-31T20:26:00.823Z,39.17
2019-01-31T20:28:28.768Z,43.40
2019-01-31T20:30:56.076Z,39.67
2019-01-31T20:33:23.293Z,38.00
2019-01-31T20:35:50.716Z,40.40
2019-01-31T20:38:18.347Z,41.80
2019-01-31T20:40:45.668Z,42.17
2019-01-31T20:43:13.175Z,39.03
2019-01-31T20:45:40.577Z,41.07
2019-01-31T20:48:08.346Z,41.47
2019-01-31T20:50:36.950Z,41.67
2019-01-31T20:53:04.979Z,36.97
2019-01-31T20:55:32.804Z,33.60
2019-01-31T20:58:00.151Z,36.90
2019-01-31T21:00:42.030Z,34.87
2019-01-31T21:03:09.626Z,33.20
2019-01-31T21:05:37.560Z,37.97
2019-01-31T21:08:06.000Z,34.73
2019-01-31T21:10:33.382Z,35.67
2019-01-31T21:13:00.728Z,39.07
2019-01-31T21:15:28.084Z,32.73
2019-01-31T21:17:55.382Z,35.30
2019-01-31T21:20:22.973Z,35.20
2019-01-31T21:22:50.460Z,35.27
2019-01-31T21:25:18.175Z,30.93
2019-01-31T21:27:46.095Z,33.23
2019-01-31T21:30:19.588Z,33.53
2019-01-31T21:32:46.912Z,34.37
2019-01-31T21:35:14.641Z,30.33
2019-01-31T21:37:41.982Z,30.70
2019-01-31T21:40:09.750Z,27.73
2019-01-31T21:42:37.080Z,26.23
2019-01-31T21:45:06.380Z,28.70
2019-01-31T21:47:33.712Z,27.83
2019-01-31T21:50:01.077Z,28.40
2019-01-31T21:52:28.412Z,27.23
2019-01-31T21:54:55.752Z,25.93
2019-01-31T21:57:23.310Z,28.87
2019-01-31T21:59:50.796Z,26.27
2019-01-31T22:02:18.328Z,31.80
2019-01-31T22:04:45.721Z,26.30
2019-01-31T22:07:13.091Z,27.40
2019-01-31T22:09:40.432Z,26.20
2019-01-31T22:12:07.700Z,26.63
2019-01-31T22:14:35.243Z,27.30
2019-01-31T22:17:13.938Z,32.03
2019-01-31T22:19:31.816Z,31.27
2019-01-31T22:21:59.430Z,30.77
2019-01-31T22:24:26.831Z,34.07
2019-01-31T22:26:54.180Z,32.57
2019-01-31T22:29:21.535Z,30.07
2019-01-31T22:31:48.791Z,29.10
2019-01-31T22:34:16.087Z,31.13
2019-01-31T22:36:43.544Z,33.77
2019-01-31T22:39:10.877Z,34.83
2019-01-31T22:41:38.247Z,35.97
2019-01-31T22:44:05.632Z,32.30
2019-01-31T22:46:32.975Z,35.40
2019-01-31T22:49:00.196Z,33.30
2019-01-31T22:51:27.520Z,31.87
2019-01-31T22:53:54.887Z,33.83
2019-01-31T22:56:22.217Z,32.07
2019-01-31T22:58:49.552Z,30.67
2019-01-31T23:01:39.311Z,29.30
2019-01-31T23:04:06.831Z,25.37
2019-01-31T23:06:34.287Z,29.33
2019-01-31T23:09:01.509Z,27.07
2019-01-31T23:11:28.837Z,30.13
2019-01-31T23:13:56.288Z,31.93
2019-01-31T23:16:23.536Z,32.13
2019-01-31T23:18:50.904Z,30.13
2019-01-31T23:21:18.264Z,37.37
2019-01-31T23:23:45.575Z,30.83
2019-01-31T23:26:12.938Z,30.33
2019-01-31T23:28:40.180Z,35.80
2019-01-31T23:31:07.529Z,30.97
2019-01-31T23:33:35.114Z,36.30
2019-01-31T23:36:02.863Z,34.50
2019-01-31T23:38:30.182Z,33.97
2019-01-31T23:40:57.523Z,34.90
2019-01-31T23:43:24.814Z,33.23
2019-01-31T23:45:52.118Z,34.80
2019-01-31T23:48:19.458Z,39.23
2019-01-31T23:50:46.682Z,36.03
2019-01-31T23:53:14.023Z,39.27
2019-01-31T23:55:41.276Z,37.70
2019-01-31T23:58:08.744Z,41.73
